sensor_id;sensor_type;location;lat;lon;timestamp;pressure;altitude;pressure_sealevel;temperature;humidity
85836;BME280;76292;47.678;19.066;2024-02-23T00:01:08;98746.41;;;10.18;55.19
85836;BME280;76292;47.678;19.066;2024-02-23T00:03:13;98757.69;;;10.12;55.55
85836;BME280;76292;47.678;19.066;2024-02-23T00:05:14;98744.75;;;10.17;55.08
85836;BME280;76292;47.678;19.066;2024-02-23T00:07:14;98759.63;;;10.21;54.63
85836;BME280;76292;47.678;19.066;2024-02-23T00:09:14;98745.63;;;10.13;55.21
85836;BME280;76292;47.678;19.066;2024-02-23T00:11:15;98751.66;;;10.15;55.26
85836;BME280;76292;47.678;19.066;2024-02-23T00:13:17;98740.34;;;10.16;55.62
85836;BME280;76292;47.678;19.066;2024-02-23T00:15:18;98750.00;;;10.14;55.43
85836;BME280;76292;47.678;19.066;2024-02-23T00:17:20;98746.41;;;10.18;55.43
85836;BME280;76292;47.678;19.066;2024-02-23T00:19:22;98743.94;;;10.12;55.65
85836;BME280;76292;47.678;19.066;2024-02-23T00:21:24;98738.47;;;10.07;56.04
85836;BME280;76292;47.678;19.066;2024-02-23T00:23:29;98740.91;;;10.13;55.66
85836;BME280;76292;47.678;19.066;2024-02-23T00:25:29;98742.03;;;10.07;55.97
85836;BME280;76292;47.678;19.066;2024-02-23T00:27:30;98741.22;;;10.07;56.00
85836;BME280;76292;47.678;19.066;2024-02-23T00:29:30;98748.63;;;10.11;56.24
85836;BME280;76292;47.678;19.066;2024-02-23T00:31:30;98744.50;;;10.09;56.22
85836;BME280;76292;47.678;19.066;2024-02-23T00:33:31;98732.41;;;10.05;56.15
85836;BME280;76292;47.678;19.066;2024-02-23T00:35:31;98741.47;;;10.05;56.13
85836;BME280;76292;47.678;19.066;2024-02-23T00:37:31;98735.94;;;10.10;55.94
85836;BME280;76292;47.678;19.066;2024-02-23T00:39:35;98737.84;;;10.20;55.42
85836;BME280;76292;47.678;19.066;2024-02-23T00:41:39;98736.75;;;10.21;55.60
85836;BME280;76292;47.678;19.066;2024-02-23T00:43:40;98734.53;;;10.23;55.83
85836;BME280;76292;47.678;19.066;2024-02-23T00:45:43;98731.75;;;10.28;55.73
85836;BME280;76292;47.678;19.066;2024-02-23T00:47:46;98732.25;;;10.35;55.31
85836;BME280;76292;47.678;19.066;2024-02-23T00:49:49;98720.72;;;10.33;55.26
85836;BME280;76292;47.678;19.066;2024-02-23T00:51:52;98722.63;;;10.32;55.18
85836;BME280;76292;47.678;19.066;2024-02-23T00:53:55;98730.63;;;10.29;55.55
85836;BME280;76292;47.678;19.066;2024-02-23T00:56:00;98725.41;;;10.27;55.42
85836;BME280;76292;47.678;19.066;2024-02-23T00:58:00;98723.78;;;10.26;55.44
85836;BME280;76292;47.678;19.066;2024-02-23T01:00:01;98723.47;;;10.28;55.92
85836;BME280;76292;47.678;19.066;2024-02-23T01:02:03;98712.44;;;10.33;55.37
85836;BME280;76292;47.678;19.066;2024-02-23T01:04:03;98712.44;;;10.33;55.48
85836;BME280;76292;47.678;19.066;2024-02-23T01:06:03;98716.25;;;10.37;55.67
85836;BME280;76292;47.678;19.066;2024-02-23T01:08:04;98715.47;;;10.31;55.61
85836;BME280;76292;47.678;19.066;2024-02-23T01:10:07;98720.16;;;10.31;56.16
85836;BME280;76292;47.678;19.066;2024-02-23T01:12:07;98709.19;;;10.26;56.26
85836;BME280;76292;47.678;19.066;2024-02-23T01:14:08;98706.41;;;10.26;56.11
85836;BME280;76292;47.678;19.066;2024-02-23T01:16:09;98709.19;;;10.26;55.97
85836;BME280;76292;47.678;19.066;2024-02-23T01:18:10;98705.31;;;10.27;56.28
85836;BME280;76292;47.678;19.066;2024-02-23T01:20:10;98701.44;;;10.28;56.25
85836;BME280;76292;47.678;19.066;2024-02-23T01:22:10;98699.00;;;10.26;56.62
85836;BME280;76292;47.678;19.066;2024-02-23T01:24:17;98700.59;;;10.27;56.66
85836;BME280;76292;47.678;19.066;2024-02-23T01:26:18;98705.84;;;10.29;56.39
85836;BME280;76292;47.678;19.066;2024-02-23T01:28:20;98687.91;;;10.31;56.92
85836;BME280;76292;47.678;19.066;2024-02-23T01:30:21;98694.03;;;10.23;57.09
85836;BME280;76292;47.678;19.066;2024-02-23T01:32:21;98688.25;;;10.25;57.45
85836;BME280;76292;47.678;19.066;2024-02-23T01:34:22;98690.19;;;10.24;57.93
85836;BME280;76292;47.678;19.066;2024-02-23T01:36:24;98685.53;;;10.20;57.50
85836;BME280;76292;47.678;19.066;2024-02-23T01:38:24;98683.31;;;10.22;57.78
85836;BME280;76292;47.678;19.066;2024-02-23T01:40:31;98680.28;;;10.23;58.15
85836;BME280;76292;47.678;19.066;2024-02-23T01:42:34;98672.84;;;10.24;58.72
85836;BME280;76292;47.678;19.066;2024-02-23T01:44:35;98676.75;;;10.18;60.19
85836;BME280;76292;47.678;19.066;2024-02-23T01:46:35;98669.03;;;10.15;60.37
85836;BME280;76292;47.678;19.066;2024-02-23T01:48:36;98678.69;;;10.12;60.83
85836;BME280;76292;47.678;19.066;2024-02-23T01:50:36;98661.06;;;10.08;62.69
85836;BME280;76292;47.678;19.066;2024-02-23T01:52:39;98671.28;;;10.03;62.18
85836;BME280;76292;47.678;19.066;2024-02-23T01:54:40;98669.09;;;10.00;63.44
85836;BME280;76292;47.678;19.066;2024-02-23T01:56:40;98681.28;;;9.89;64.66
85836;BME280;76292;47.678;19.066;2024-02-23T01:58:41;98663.97;;;9.83;65.04
85836;BME280;76292;47.678;19.066;2024-02-23T02:00:41;98673.09;;;9.78;65.23
85836;BME280;76292;47.678;19.066;2024-02-23T02:02:43;98674.25;;;9.72;66.36
85836;BME280;76292;47.678;19.066;2024-02-23T02:04:44;98678.66;;;9.68;66.90
85836;BME280;76292;47.678;19.066;2024-02-23T02:06:47;98679.25;;;9.60;67.42
85836;BME280;76292;47.678;19.066;2024-02-23T02:08:48;98678.72;;;9.58;67.73
85836;BME280;76292;47.678;19.066;2024-02-23T02:10:49;98676.53;;;9.55;68.15
85836;BME280;76292;47.678;19.066;2024-02-23T02:12:49;98671.31;;;9.49;68.58
85836;BME280;76292;47.678;19.066;2024-02-23T02:14:52;98677.34;;;9.51;68.88
85836;BME280;76292;47.678;19.066;2024-02-23T02:16:53;98669.38;;;9.49;69.30
85836;BME280;76292;47.678;19.066;2024-02-23T02:18:53;98671.03;;;9.50;68.43
85836;BME280;76292;47.678;19.066;2024-02-23T02:20:55;98680.97;;;9.46;68.76
85836;BME280;76292;47.678;19.066;2024-02-23T02:22:56;98671.06;;;9.40;69.93
85836;BME280;76292;47.678;19.066;2024-02-23T02:24:57;98673.81;;;9.40;69.95
85836;BME280;76292;47.678;19.066;2024-02-23T02:26:57;98681.53;;;9.38;70.05
85836;BME280;76292;47.678;19.066;2024-02-23T02:28:57;98680.44;;;9.34;70.07
85836;BME280;76292;47.678;19.066;2024-02-23T02:30:58;98672.75;;;9.31;71.08
85836;BME280;76292;47.678;19.066;2024-02-23T02:32:58;98685.16;;;9.34;69.95
85836;BME280;76292;47.678;19.066;2024-02-23T02:35:02;98672.75;;;9.31;71.29
85836;BME280;76292;47.678;19.066;2024-02-23T02:37:02;98673.31;;;9.28;71.82
85836;BME280;76292;47.678;19.066;2024-02-23T02:39:02;98677.69;;;9.34;70.50
85836;BME280;76292;47.678;19.066;2024-02-23T02:41:03;98681.00;;;9.31;70.92
85836;BME280;76292;47.678;19.066;2024-02-23T02:43:04;98686.50;;;9.31;70.68
85836;BME280;76292;47.678;19.066;2024-02-23T02:45:04;98681.84;;;9.32;71.31
85836;BME280;76292;47.678;19.066;2024-02-23T02:47:05;98686.25;;;9.28;71.20
85836;BME280;76292;47.678;19.066;2024-02-23T02:49:05;98695.31;;;9.28;71.74
85836;BME280;76292;47.678;19.066;2024-02-23T02:51:08;98688.75;;;9.24;71.92
85836;BME280;76292;47.678;19.066;2024-02-23T02:53:09;98694.50;;;9.22;72.99
85836;BME280;76292;47.678;19.066;2024-02-23T02:55:10;98692.06;;;9.21;72.69
85836;BME280;76292;47.678;19.066;2024-02-23T02:57:10;98688.22;;;9.22;72.70
85836;BME280;76292;47.678;19.066;2024-02-23T02:59:11;98694.25;;;9.19;73.47
85836;BME280;76292;47.678;19.066;2024-02-23T03:01:11;98686.56;;;9.16;74.04
85836;BME280;76292;47.678;19.066;2024-02-23T03:03:14;98685.75;;;9.15;74.64
85836;BME280;76292;47.678;19.066;2024-02-23T03:05:14;98687.69;;;9.10;74.11
85836;BME280;76292;47.678;19.066;2024-02-23T03:07:15;98696.22;;;9.03;76.85
85836;BME280;76292;47.678;19.066;2024-02-23T03:09:21;98705.31;;;8.94;78.27
85836;BME280;76292;47.678;19.066;2024-02-23T03:11:21;98693.22;;;8.95;76.21
85836;BME280;76292;47.678;19.066;2024-02-23T03:13:22;98699.56;;;8.90;76.58
85836;BME280;76292;47.678;19.066;2024-02-23T03:15:25;98695.44;;;8.88;78.41
85836;BME280;76292;47.678;19.066;2024-02-23T03:17:25;98698.19;;;8.78;79.30
85836;BME280;76292;47.678;19.066;2024-02-23T03:19:26;98699.53;;;8.80;79.51
85836;BME280;76292;47.678;19.066;2024-02-23T03:21:27;98698.19;;;8.78;80.73
85836;BME280;76292;47.678;19.066;2024-02-23T03:23:27;98705.34;;;8.74;80.74
85836;BME280;76292;47.678;19.066;2024-02-23T03:25:29;98713.28;;;8.60;81.33
85836;BME280;76292;47.678;19.066;2024-02-23T03:27:29;98714.69;;;8.52;80.66
85836;BME280;76292;47.678;19.066;2024-02-23T03:29:29;98703.69;;;8.52;81.20
85836;BME280;76292;47.678;19.066;2024-02-23T03:31:30;98705.63;;;8.47;82.17
85836;BME280;76292;47.678;19.066;2024-02-23T03:33:31;98704.78;;;8.41;83.05
85836;BME280;76292;47.678;19.066;2024-02-23T03:35:31;98720.44;;;8.46;83.59
85836;BME280;76292;47.678;19.066;2024-02-23T03:37:31;98714.66;;;8.37;84.37
85836;BME280;76292;47.678;19.066;2024-02-23T03:39:32;98709.19;;;8.32;85.51
85836;BME280;76292;47.678;19.066;2024-02-23T03:41:37;98703.44;;;8.34;83.87
85836;BME280;76292;47.678;19.066;2024-02-23T03:43:37;98697.38;;;8.32;83.25
85836;BME280;76292;47.678;19.066;2024-02-23T03:45:38;98703.41;;;8.29;84.73
85836;BME280;76292;47.678;19.066;2024-02-23T03:47:41;98711.63;;;8.29;85.17
85836;BME280;76292;47.678;19.066;2024-02-23T03:49:41;98705.84;;;8.20;84.66
85836;BME280;76292;47.678;19.066;2024-02-23T03:51:44;98700.38;;;8.25;84.11
85836;BME280;76292;47.678;19.066;2024-02-23T03:53:48;98698.72;;;8.19;85.25
85836;BME280;76292;47.678;19.066;2024-02-23T03:55:48;98700.38;;;8.20;85.35
85836;BME280;76292;47.678;19.066;2024-02-23T03:57:51;98702.28;;;8.20;85.97
85836;BME280;76292;47.678;19.066;2024-02-23T03:59:52;98709.16;;;8.17;86.42
85836;BME280;76292;47.678;19.066;2024-02-23T04:01:53;98711.84;;;8.07;86.39
85836;BME280;76292;47.678;19.066;2024-02-23T04:03:57;98709.41;;;8.05;87.58
85836;BME280;76292;47.678;19.066;2024-02-23T04:05:59;98703.63;;;7.97;86.71
85836;BME280;76292;47.678;19.066;2024-02-23T04:07:59;98714.31;;;7.98;86.86
85836;BME280;76292;47.678;19.066;2024-02-23T04:10:00;98712.13;;;8.00;87.54
85836;BME280;76292;47.678;19.066;2024-02-23T04:12:00;98711.03;;;8.06;87.42
85836;BME280;76292;47.678;19.066;2024-02-23T04:14:01;98706.63;;;8.00;87.25
85836;BME280;76292;47.678;19.066;2024-02-23T04:16:05;98710.78;;;8.13;87.85
85836;BME280;76292;47.678;19.066;2024-02-23T04:18:06;98699.50;;;8.09;87.42
85836;BME280;76292;47.678;19.066;2024-02-23T04:20:07;98702.25;;;8.04;86.31
85836;BME280;76292;47.678;19.066;2024-02-23T04:22:08;98700.34;;;8.10;86.30
85836;BME280;76292;47.678;19.066;2024-02-23T04:24:10;98709.13;;;8.07;87.24
85836;BME280;76292;47.678;19.066;2024-02-23T04:26:10;98700.34;;;8.05;87.75
85836;BME280;76292;47.678;19.066;2024-02-23T04:28:10;98703.09;;;8.00;87.98
85836;BME280;76292;47.678;19.066;2024-02-23T04:30:11;98712.09;;;7.95;88.06
85836;BME280;76292;47.678;19.066;2024-02-23T04:32:12;98704.16;;;7.99;87.13
85836;BME280;76292;47.678;19.066;2024-02-23T04:34:15;98701.72;;;7.97;87.32
85836;BME280;76292;47.678;19.066;2024-02-23T04:36:19;98706.91;;;8.04;87.11
85836;BME280;76292;47.678;19.066;2024-02-23T04:38:20;98694.84;;;8.05;87.16
85836;BME280;76292;47.678;19.066;2024-02-23T04:40:21;98711.31;;;8.05;87.41
85836;BME280;76292;47.678;19.066;2024-02-23T04:42:24;98699.22;;;8.06;87.58
85836;BME280;76292;47.678;19.066;2024-02-23T04:44:24;98699.22;;;8.06;87.71
85836;BME280;76292;47.678;19.066;2024-02-23T04:46:24;98708.81;;;7.98;87.66
85836;BME280;76292;47.678;19.066;2024-02-23T04:48:25;98701.41;;;8.04;86.95
85836;BME280;76292;47.678;19.066;2024-02-23T04:50:27;98694.84;;;8.05;86.86
85836;BME280;76292;47.678;19.066;2024-02-23T04:52:28;98701.72;;;8.07;86.77
85836;BME280;76292;47.678;19.066;2024-02-23T04:54:31;98698.13;;;8.12;85.84
85836;BME280;76292;47.678;19.066;2024-02-23T04:56:34;98702.00;;;8.16;86.25
85836;BME280;76292;47.678;19.066;2024-02-23T04:58:34;98702.00;;;8.21;85.64
85836;BME280;76292;47.678;19.066;2024-02-23T05:00:35;98698.44;;;8.26;86.32
85836;BME280;76292;47.678;19.066;2024-02-23T05:02:35;98700.66;;;8.29;85.27
85836;BME280;76292;47.678;19.066;2024-02-23T05:04:35;98701.50;;;8.34;84.35
85836;BME280;76292;47.678;19.066;2024-02-23T05:06:36;98683.66;;;8.37;84.05
85836;BME280;76292;47.678;19.066;2024-02-23T05:08:36;98699.84;;;8.38;83.06
85836;BME280;76292;47.678;19.066;2024-02-23T05:10:37;98697.94;;;8.44;83.20
85836;BME280;76292;47.678;19.066;2024-02-23T05:12:43;98708.09;;;8.48;83.45
85836;BME280;76292;47.678;19.066;2024-02-23T05:14:43;98705.06;;;8.50;81.67
85836;BME280;76292;47.678;19.066;2024-02-23T05:16:44;98709.72;;;8.49;82.73
85836;BME280;76292;47.678;19.066;2024-02-23T05:18:48;98708.63;;;8.60;81.51
85836;BME280;76292;47.678;19.066;2024-02-23T05:20:51;98703.97;;;8.61;80.85
85836;BME280;76292;47.678;19.066;2024-02-23T05:22:51;98717.97;;;8.64;80.84
85836;BME280;76292;47.678;19.066;2024-02-23T05:24:52;98712.47;;;8.75;79.51
85836;BME280;76292;47.678;19.066;2024-02-23T05:26:54;98721.81;;;8.79;79.83
85836;BME280;76292;47.678;19.066;2024-02-23T05:28:55;98724.28;;;8.75;79.62
85836;BME280;76292;47.678;19.066;2024-02-23T05:30:55;98732.81;;;8.74;79.96
85836;BME280;76292;47.678;19.066;2024-02-23T05:32:57;98728.97;;;8.80;79.25
85836;BME280;76292;47.678;19.066;2024-02-23T05:34:58;98738.56;;;8.77;79.43
85836;BME280;76292;47.678;19.066;2024-02-23T05:36:58;98735.81;;;8.77;79.74
85836;BME280;76292;47.678;19.066;2024-02-23T05:38:59;98744.34;;;8.76;79.13
85836;BME280;76292;47.678;19.066;2024-02-23T05:40:59;98753.13;;;8.78;79.02
85836;BME280;76292;47.678;19.066;2024-02-23T05:43:01;98749.84;;;8.81;79.16
85836;BME280;76292;47.678;19.066;2024-02-23T05:45:06;98758.63;;;8.73;79.49
85836;BME280;76292;47.678;19.066;2024-02-23T05:47:13;98765.50;;;8.80;79.35
85836;BME280;76292;47.678;19.066;2024-02-23T05:49:14;98773.47;;;8.72;80.30
85836;BME280;76292;47.678;19.066;2024-02-23T05:51:14;98766.06;;;8.72;80.57
85836;BME280;76292;47.678;19.066;2024-02-23T05:53:14;98771.00;;;8.70;79.46
85836;BME280;76292;47.678;19.066;2024-02-23T05:55:15;98783.66;;;8.71;79.13
85836;BME280;76292;47.678;19.066;2024-02-23T05:57:15;98782.25;;;8.68;79.87
85836;BME280;76292;47.678;19.066;2024-02-23T05:59:16;98791.06;;;8.65;80.25
85836;BME280;76292;47.678;19.066;2024-02-23T06:01:16;98797.66;;;8.70;79.39
85836;BME280;76292;47.678;19.066;2024-02-23T06:03:16;98801.78;;;8.67;80.15
85836;BME280;76292;47.678;19.066;2024-02-23T06:05:18;98808.63;;;8.64;80.72
85836;BME280;76292;47.678;19.066;2024-02-23T06:07:19;98805.34;;;8.68;80.77
85836;BME280;76292;47.678;19.066;2024-02-23T06:09:22;98792.16;;;8.64;80.86
85836;BME280;76292;47.678;19.066;2024-02-23T06:11:22;98812.75;;;8.62;80.95
85836;BME280;76292;47.678;19.066;2024-02-23T06:13:25;98816.34;;;8.62;82.07
85836;BME280;76292;47.678;19.066;2024-02-23T06:15:27;98818.25;;;8.57;82.37
85836;BME280;76292;47.678;19.066;2024-02-23T06:17:30;98816.59;;;8.56;81.85
85836;BME280;76292;47.678;19.066;2024-02-23T06:19:33;98825.63;;;8.51;83.02
85836;BME280;76292;47.678;19.066;2024-02-23T06:21:34;98813.53;;;8.37;83.74
85836;BME280;76292;47.678;19.066;2024-02-23T06:23:34;98832.78;;;8.42;83.14
85836;BME280;76292;47.678;19.066;2024-02-23T06:25:35;98827.53;;;8.41;83.13
85836;BME280;76292;47.678;19.066;2024-02-23T06:27:38;98833.31;;;8.44;82.86
85836;BME280;76292;47.678;19.066;2024-02-23T06:29:38;98843.19;;;8.40;83.96
85836;BME280;76292;47.678;19.066;2024-02-23T06:31:41;98845.13;;;8.40;83.92
85836;BME280;76292;47.678;19.066;2024-02-23T06:33:46;98846.22;;;8.44;84.27
85836;BME280;76292;47.678;19.066;2024-02-23T06:35:49;98853.38;;;8.40;85.47
85836;BME280;76292;47.678;19.066;2024-02-23T06:37:54;98847.06;;;8.39;84.56
85836;BME280;76292;47.678;19.066;2024-02-23T06:39:55;98843.19;;;8.40;84.56
85836;BME280;76292;47.678;19.066;2024-02-23T06:41:55;98850.88;;;8.38;85.69
85836;BME280;76292;47.678;19.066;2024-02-23T06:44:00;98851.97;;;8.32;85.38
85836;BME280;76292;47.678;19.066;2024-02-23T06:46:05;98855.75;;;8.26;85.82
85836;BME280;76292;47.678;19.066;2024-02-23T06:48:06;98853.84;;;8.27;85.98
85836;BME280;76292;47.678;19.066;2024-02-23T06:50:07;98851.41;;;8.30;86.78
85836;BME280;76292;47.678;19.066;2024-02-23T06:52:13;98858.28;;;8.33;86.74
85836;BME280;76292;47.678;19.066;2024-02-23T06:54:14;98852.50;;;8.29;86.60
85836;BME280;76292;47.678;19.066;2024-02-23T06:56:18;98864.06;;;8.31;86.74
85836;BME280;76292;47.678;19.066;2024-02-23T06:58:18;98856.38;;;8.33;87.53
85836;BME280;76292;47.678;19.066;2024-02-23T07:00:19;98864.91;;;8.37;87.93
85836;BME280;76292;47.678;19.066;2024-02-23T07:02:20;98863.53;;;8.34;87.62
85836;BME280;76292;47.678;19.066;2024-02-23T07:04:20;98865.69;;;8.32;87.50
85836;BME280;76292;47.678;19.066;2024-02-23T07:06:23;98857.75;;;8.36;86.84
85836;BME280;76292;47.678;19.066;2024-02-23T07:08:23;98866.53;;;8.33;87.23
85836;BME280;76292;47.678;19.066;2024-02-23T07:10:28;98860.22;;;8.37;86.83
85836;BME280;76292;47.678;19.066;2024-02-23T07:12:29;98870.66;;;8.40;86.52
85836;BME280;76292;47.678;19.066;2024-02-23T07:14:29;98869.88;;;8.50;86.42
85836;BME280;76292;47.678;19.066;2024-02-23T07:16:29;98867.13;;;8.50;86.64
85836;BME280;76292;47.678;19.066;2024-02-23T07:18:33;98861.88;;;8.43;86.24
85836;BME280;76292;47.678;19.066;2024-02-23T07:20:35;98867.91;;;8.40;86.42
85836;BME280;76292;47.678;19.066;2024-02-23T07:22:35;98867.13;;;8.45;86.72
85836;BME280;76292;47.678;19.066;2024-02-23T07:24:41;98866.28;;;8.49;86.44
85836;BME280;76292;47.678;19.066;2024-02-23T07:26:41;98869.59;;;8.51;86.60
85836;BME280;76292;47.678;19.066;2024-02-23T07:28:41;98875.06;;;8.46;86.57
85836;BME280;76292;47.678;19.066;2024-02-23T07:30:42;98873.16;;;8.52;86.79
85836;BME280;76292;47.678;19.066;2024-02-23T07:32:44;98873.44;;;8.55;86.81
85836;BME280;76292;47.678;19.066;2024-02-23T07:34:48;98883.91;;;8.58;87.98
85836;BME280;76292;47.678;19.066;2024-02-23T07:36:53;98871.00;;;8.59;87.22
85836;BME280;76292;47.678;19.066;2024-02-23T07:38:56;98860.53;;;8.56;86.64
85836;BME280;76292;47.678;19.066;2024-02-23T07:40:56;98860.84;;;8.59;86.06
85836;BME280;76292;47.678;19.066;2024-02-23T07:42:58;98868.25;;;8.69;86.04
85836;BME280;76292;47.678;19.066;2024-02-23T07:45:03;98861.97;;;8.74;85.81
85836;BME280;76292;47.678;19.066;2024-02-23T07:47:04;98865.25;;;8.71;86.01
85836;BME280;76292;47.678;19.066;2024-02-23T07:49:05;98867.47;;;8.74;86.29
85836;BME280;76292;47.678;19.066;2024-02-23T07:51:11;98868.84;;;8.76;86.04
85836;BME280;76292;47.678;19.066;2024-02-23T07:53:11;98861.97;;;8.79;85.69
85836;BME280;76292;47.678;19.066;2024-02-23T07:55:11;98859.47;;;8.72;85.29
85836;BME280;76292;47.678;19.066;2024-02-23T07:57:12;98870.75;;;8.81;85.70
85836;BME280;76292;47.678;19.066;2024-02-23T07:59:13;98866.91;;;8.82;83.44
85836;BME280;76292;47.678;19.066;2024-02-23T08:01:14;98873.78;;;8.89;84.67
85836;BME280;76292;47.678;19.066;2024-02-23T08:03:17;98872.16;;;8.93;84.60
85836;BME280;76292;47.678;19.066;2024-02-23T08:05:17;98876.28;;;9.01;84.08
85836;BME280;76292;47.678;19.066;2024-02-23T08:07:18;98872.16;;;8.98;84.23
85836;BME280;76292;47.678;19.066;2024-02-23T08:09:18;98875.19;;;9.02;83.51
85836;BME280;76292;47.678;19.066;2024-02-23T08:11:21;98876.84;;;9.13;82.32
85836;BME280;76292;47.678;19.066;2024-02-23T08:13:22;98878.22;;;9.15;83.71
85836;BME280;76292;47.678;19.066;2024-02-23T08:15:22;98883.69;;;9.25;83.26
85836;BME280;76292;47.678;19.066;2024-02-23T08:17:23;98874.34;;;9.37;82.27
85836;BME280;76292;47.678;19.066;2024-02-23T08:19:23;98884.25;;;9.43;81.78
85836;BME280;76292;47.678;19.066;2024-02-23T08:21:25;98872.16;;;9.34;81.94
85836;BME280;76292;47.678;19.066;2024-02-23T08:23:29;98887.84;;;9.38;82.06
85836;BME280;76292;47.678;19.066;2024-02-23T08:25:30;98884.78;;;9.50;82.25
85836;BME280;76292;47.678;19.066;2024-02-23T08:27:32;98887.00;;;9.53;81.03
85836;BME280;76292;47.678;19.066;2024-02-23T08:29:33;98888.66;;;9.59;81.16
85836;BME280;76292;47.678;19.066;2024-02-23T08:31:33;98889.47;;;9.64;80.77
85836;BME280;76292;47.678;19.066;2024-02-23T08:33:33;98891.38;;;9.69;80.97
85836;BME280;76292;47.678;19.066;2024-02-23T08:35:34;98898.28;;;9.61;81.25
85836;BME280;76292;47.678;19.066;2024-02-23T08:37:34;98893.84;;;9.70;81.21
85836;BME280;76292;47.678;19.066;2024-02-23T08:39:39;98899.88;;;9.77;80.86
85836;BME280;76292;47.678;19.066;2024-02-23T08:41:39;98885.28;;;9.87;79.88
85836;BME280;76292;47.678;19.066;2024-02-23T08:43:42;98886.03;;;10.08;79.49
85836;BME280;76292;47.678;19.066;2024-02-23T08:45:43;98890.47;;;9.94;79.03
85836;BME280;76292;47.678;19.066;2024-02-23T08:47:43;98897.31;;;10.16;80.17
85836;BME280;76292;47.678;19.066;2024-02-23T08:49:44;98897.31;;;10.11;78.90
85836;BME280;76292;47.678;19.066;2024-02-23T08:51:44;98897.06;;;10.03;78.32
85836;BME280;76292;47.678;19.066;2024-02-23T08:53:44;98906.13;;;10.13;79.04
85836;BME280;76292;47.678;19.066;2024-02-23T08:55:45;98901.75;;;10.07;78.34
85836;BME280;76292;47.678;19.066;2024-02-23T08:57:47;98909.16;;;10.12;78.93
85836;BME280;76292;47.678;19.066;2024-02-23T08:59:50;98907.78;;;10.09;78.55
85836;BME280;76292;47.678;19.066;2024-02-23T09:01:50;98902.50;;;10.38;78.17
85836;BME280;76292;47.678;19.066;2024-02-23T09:03:51;98904.63;;;10.51;76.86
85836;BME280;76292;47.678;19.066;2024-02-23T09:05:51;98901.94;;;10.41;77.07
85836;BME280;76292;47.678;19.066;2024-02-23T09:07:51;98908.84;;;10.28;77.18
85836;BME280;76292;47.678;19.066;2024-02-23T09:09:54;98908.88;;;10.23;77.86
85836;BME280;76292;47.678;19.066;2024-02-23T09:11:57;98911.03;;;10.31;78.46
85836;BME280;76292;47.678;19.066;2024-02-23T09:13:58;98914.03;;;10.40;77.77
85836;BME280;76292;47.678;19.066;2024-02-23T09:15:58;98909.84;;;10.58;77.16
85836;BME280;76292;47.678;19.066;2024-02-23T09:17:59;98918.84;;;10.78;76.31
85836;BME280;76292;47.678;19.066;2024-02-23T09:19:59;98921.50;;;10.88;76.71
85836;BME280;76292;47.678;19.066;2024-02-23T09:21:59;98918.19;;;10.91;75.65
85836;BME280;76292;47.678;19.066;2024-02-23T09:24:02;98920.06;;;11.01;75.61
85836;BME280;76292;47.678;19.066;2024-02-23T09:26:08;98925.38;;;10.92;74.38
85836;BME280;76292;47.678;19.066;2024-02-23T09:28:08;98919.69;;;11.13;74.60
85836;BME280;76292;47.678;19.066;2024-02-23T09:30:13;98924.56;;;11.26;74.35
85836;BME280;76292;47.678;19.066;2024-02-23T09:32:13;98916.34;;;11.21;74.36
85836;BME280;76292;47.678;19.066;2024-02-23T09:34:14;98922.66;;;11.26;73.15
85836;BME280;76292;47.678;19.066;2024-02-23T09:36:17;98921.53;;;11.27;74.53
85836;BME280;76292;47.678;19.066;2024-02-23T09:38:20;98917.09;;;11.31;73.40
85836;BME280;76292;47.678;19.066;2024-02-23T09:40:20;98925.28;;;11.41;74.13
85836;BME280;76292;47.678;19.066;2024-02-23T09:42:22;98916.25;;;11.65;73.13
85836;BME280;76292;47.678;19.066;2024-02-23T09:44:32;98921.03;;;11.54;71.58
85836;BME280;76292;47.678;19.066;2024-02-23T09:46:34;98920.72;;;11.61;72.32
85836;BME280;76292;47.678;19.066;2024-02-23T09:48:39;98925.47;;;11.50;72.89
85836;BME280;76292;47.678;19.066;2024-02-23T09:50:40;98940.09;;;11.50;72.12
85836;BME280;76292;47.678;19.066;2024-02-23T09:52:45;98935.94;;;11.53;71.15
85836;BME280;76292;47.678;19.066;2024-02-23T09:54:47;98937.81;;;11.63;72.12
85836;BME280;76292;47.678;19.066;2024-02-23T09:56:47;98943.19;;;11.83;71.43
85836;BME280;76292;47.678;19.066;2024-02-23T09:58:48;98938.31;;;11.98;71.05
85836;BME280;76292;47.678;19.066;2024-02-23T10:00:54;98947.63;;;12.07;69.92
85836;BME280;76292;47.678;19.066;2024-02-23T10:02:55;98940.81;;;12.24;71.37
85836;BME280;76292;47.678;19.066;2024-02-23T10:04:56;98937.22;;;12.23;69.52
85836;BME280;76292;47.678;19.066;2024-02-23T10:06:57;98943.28;;;12.25;70.73
85836;BME280;76292;47.678;19.066;2024-02-23T10:08:57;98943.75;;;12.32;70.35
85836;BME280;76292;47.678;19.066;2024-02-23T10:10:57;98944.56;;;12.33;69.07
85836;BME280;76292;47.678;19.066;2024-02-23T10:12:59;98953.38;;;12.35;69.68
85836;BME280;76292;47.678;19.066;2024-02-23T10:15:02;98944.47;;;12.43;69.14
85836;BME280;76292;47.678;19.066;2024-02-23T10:17:08;98945.47;;;12.28;68.67
85836;BME280;76292;47.678;19.066;2024-02-23T10:19:11;98951.50;;;12.30;69.74
85836;BME280;76292;47.678;19.066;2024-02-23T10:21:13;98942.88;;;12.13;68.50
85836;BME280;76292;47.678;19.066;2024-02-23T10:23:14;98961.28;;;12.23;67.44
85836;BME280;76292;47.678;19.066;2024-02-23T10:25:14;98959.06;;;11.96;69.66
85836;BME280;76292;47.678;19.066;2024-02-23T10:27:15;98957.91;;;12.02;69.18
85836;BME280;76292;47.678;19.066;2024-02-23T10:29:18;98965.84;;;12.08;69.04
85836;BME280;76292;47.678;19.066;2024-02-23T10:31:18;98972.28;;;12.28;67.32
85836;BME280;76292;47.678;19.066;2024-02-23T10:33:23;98974.09;;;12.61;67.73
85836;BME280;76292;47.678;19.066;2024-02-23T10:35:24;98971.81;;;12.68;67.76
85836;BME280;76292;47.678;19.066;2024-02-23T10:37:25;98966.31;;;12.63;67.39
85836;BME280;76292;47.678;19.066;2024-02-23T10:39:29;98972.50;;;12.79;66.89
85836;BME280;76292;47.678;19.066;2024-02-23T10:41:35;98965.28;;;12.59;64.82